Byers, Texas
Current Conditions -  °F | °C
As of 3:52 AM on Sunday 23 Nov 2014 (Local Time) from KSPS Reporting Station
Moderate Fog Moderate Fog  
Wind Chill: 45°   Ceiling: 200
Heat Index: 49°   Visibility: 0.25mi
Dew Point: 49°   Wind: 8mph
Humidity: 100%   Direction: 170°S
Pressure: 29.56"   Gusts: NA
Location:  34.07°N, 98.19°W
Report Text: KSPS 230952Z AUTO 17007KT 1/4SM FG VV002 09/09 A2956 RMK AO2 SLP004 T00940094 TSNO
Loading
Personal Weather Stations






























Interactive Weather Map New forecast layout! Learn more

10-Day Weather Forecast

Advertisements
Track Severe Weather on mobile